Time;durP1;ratioP1;P1;durP2;ratioP2;P2;SDS_P1;SDS_P2;PMS_P1;PMS_P2;Temp;Humidity;BMP_temperature;BMP_pressure;BME280_temperature;BME280_humidity;BME280_pressure;Samples;Min_cycle;Max_cycle;Signal;HPM_P1;HPM_P2
2022/04/02 00:00:46;;;;;;;4.80;2.97;;;;;;;3.25;57.65;101266.41;3563540;40;20084;-66
2022/04/02 00:03:12;;;;;;;3.95;2.90;;;;;;;3.24;58.18;101258.50;3566074;40;20203;-64
2022/04/02 00:05:37;;;;;;;4.93;3.05;;;;;;;3.24;57.52;101272.66;3563882;40;20060;-64
2022/04/02 00:08:04;;;;;;;4.10;2.60;;;;;;;3.24;57.53;101259.38;3564603;40;20057;-66
2022/04/02 00:10:29;;;;;;;7.78;2.75;;;;;;;3.28;56.78;101265.47;3554657;40;20434;-64
2022/04/02 00:12:56;;;;;;;5.20;2.78;;;;;;;3.28;57.68;101265.47;3559542;40;20060;-64
2022/04/02 00:15:22;;;;;;;6.45;2.90;;;;;;;3.21;56.76;101264.75;3567115;40;20093;-64
2022/04/02 00:17:48;;;;;;;3.47;2.63;;;;;;;3.19;57.21;101255.06;3565403;40;20056;-64
2022/04/02 00:20:15;;;;;;;9.48;2.97;;;;;;;3.22;57.92;101265.63;3571291;40;20330;-64
2022/04/02 00:25:25;;;;;;;6.53;2.67;;;;;;;3.27;57.61;101274.38;3567404;40;20129;-64
2022/04/02 00:27:51;;;;;;;4.63;2.70;;;;;;;3.26;57.38;101277.91;3567536;40;20052;-64
2022/04/02 00:30:16;;;;;;;5.55;2.65;;;;;;;3.26;57.14;101273.47;3574876;40;20391;-64
2022/04/02 00:32:42;;;;;;;5.45;2.78;;;;;;;3.28;57.07;101278.75;3573118;40;20048;-64
2022/04/02 00:35:09;;;;;;;3.20;2.47;;;;;;;3.25;57.41;101274.38;3575225;40;20571;-64
2022/04/02 00:37:34;;;;;;;9.98;3.40;;;;;;;3.21;57.68;101263.91;3570709;40;20406;-65
2022/04/02 00:40:00;;;;;;;4.60;3.10;;;;;;;3.24;57.41;101263.81;3574177;40;20080;-64
2022/04/02 00:42:26;;;;;;;7.03;2.78;;;;;;;3.24;57.33;101271.78;3562203;40;20056;-64
2022/04/02 00:44:52;;;;;;;5.25;3.40;;;;;;;3.23;57.58;101262.06;3572813;40;20682;-64
2022/04/02 00:47:17;;;;;;;3.88;2.50;;;;;;;3.22;57.77;101265.63;3569974;40;20130;-64
2022/04/02 00:49:43;;;;;;;3.63;2.67;;;;;;;3.21;57.59;101271.84;3573824;40;20056;-64
2022/04/02 00:52:09;;;;;;;5.78;2.85;;;;;;;3.21;56.84;101270.06;3573194;39;20106;-64
2022/04/02 00:54:35;;;;;;;4.05;2.70;;;;;;;3.19;56.97;101265.69;3573666;40;20395;-64
2022/04/02 00:57:01;;;;;;;4.35;2.72;;;;;;;3.17;56.42;101263.09;3566126;40;20672;-64
2022/04/02 00:59:27;;;;;;;4.22;2.40;;;;;;;3.19;56.86;101265.69;3571072;40;20295;-64
2022/04/02 01:01:53;;;;;;;4.72;2.72;;;;;;;3.22;56.72;101276.25;3572772;40;20461;-65
2022/04/02 01:04:19;;;;;;;4.60;2.80;;;;;;;3.22;57.50;101277.13;3570749;40;20150;-64
2022/04/02 01:06:45;;;;;;;4.90;2.70;;;;;;;3.20;56.81;101272.75;3569603;40;20048;-64
2022/04/02 01:09:11;;;;;;;3.63;2.55;;;;;;;3.22;56.99;101269.16;3575492;40;20061;-64
2022/04/02 01:11:39;;;;;;;8.23;2.53;;;;;;;3.23;56.83;101275.34;3572489;40;20048;-64
2022/04/02 01:14:05;;;;;;;4.43;2.75;;;;;;;3.22;57.77;101263.84;3565819;40;20438;-64
2022/04/02 01:16:32;;;;;;;6.50;2.90;;;;;;;3.21;57.28;101270.06;3574910;40;20065;-64
2022/04/02 01:18:58;;;;;;;3.90;2.70;;;;;;;3.21;57.30;101269.19;3567987;40;20733;-64
2022/04/02 01:21:26;;;;;;;4.03;2.92;;;;;;;3.20;57.83;101272.75;3575405;40;20063;-64
2022/04/02 01:23:52;;;;;;;3.08;2.72;;;;;;;3.16;58.01;101269.28;3568758;40;20063;-64
2022/04/02 01:26:19;;;;;;;3.33;2.83;;;;;;;3.13;57.95;101273.81;3575792;40;20068;-64
2022/04/02 01:28:53;;;;;;;3.30;2.55;;;;;;;3.11;58.08;101270.31;3563102;40;20301;-64
2022/04/02 01:31:21;;;;;;;3.88;3.00;;;;;;;3.10;56.71;101276.53;3574716;40;20049;-64
2022/04/02 01:33:49;;;;;;;8.02;2.83;;;;;;;3.09;58.22;101278.31;3567877;40;20060;-64
2022/04/02 01:36:15;;;;;;;4.32;2.65;;;;;;;3.07;58.01;101277.47;3573923;40;20071;-64
2022/04/02 01:38:41;;;;;;;4.00;2.63;;;;;;;2.91;57.72;101250.41;3566705;40;20494;-64
2022/04/02 01:41:06;;;;;;;5.45;2.60;;;;;;;3.05;57.44;101267.84;3573982;40;20060;-64
2022/04/02 01:43:33;;;;;;;4.80;2.55;;;;;;;3.01;57.43;101262.59;3574479;40;20096;-64
2022/04/02 01:46:02;;;;;;;3.40;2.58;;;;;;;3.02;56.58;101264.31;3561290;40;20196;-64
2022/04/02 01:48:28;;;;;;;4.30;2.92;;;;;;;3.03;57.54;101260.75;3573324;40;20096;-64
2022/04/02 01:50:54;;;;;;;2.65;2.45;;;;;;;3.03;57.08;101270.50;3568352;40;20124;-64
2022/04/02 01:53:22;;;;;;;3.22;2.22;;;;;;;2.99;57.64;101267.06;3571401;40;20048;-64
2022/04/02 01:55:48;;;;;;;3.60;2.45;;;;;;;2.96;57.14;101263.59;3566337;40;20052;-64
2022/04/02 01:58:14;;;;;;;2.88;2.47;;;;;;;2.93;56.63;101261.00;3574273;40;20060;-64
2022/04/02 02:00:40;;;;;;;3.70;2.78;;;;;;;3.02;57.46;101277.59;3563239;40;20078;-64
2022/04/02 02:03:09;;;;;;;5.63;2.70;;;;;;;2.96;56.63;101279.53;3571945;40;20762;-64
2022/04/02 02:05:36;;;;;;;10.68;2.67;;;;;;;2.94;56.93;101271.59;3572628;40;20040;-64
2022/04/02 02:08:03;;;;;;;4.20;2.58;;;;;;;2.98;56.43;101289.22;3570641;40;20914;-64
2022/04/02 02:10:29;;;;;;;4.47;2.72;;;;;;;2.97;55.65;101287.44;3568995;40;20129;-64
2022/04/02 02:12:54;;;;;;;4.28;2.63;;;;;;;2.96;56.37;101284.84;3570618;40;21543;-64
2022/04/02 02:15:20;;;;;;;3.83;2.60;;;;;;;2.97;56.31;101289.22;3574289;40;20056;-64
2022/04/02 02:17:47;;;;;;;4.93;2.55;;;;;;;2.95;56.41;101289.28;3563611;40;20346;-64
2022/04/02 02:20:15;;;;;;;3.40;2.50;;;;;;;2.85;56.25;101276.22;3573076;40;20063;-64
2022/04/02 02:22:43;;;;;;;3.28;2.60;;;;;;;2.93;56.69;101291.09;3576136;40;20048;-64
2022/04/02 02:25:13;;;;;;;4.50;2.80;;;;;;;2.89;56.78;101296.53;3573267;40;20053;-64
2022/04/02 02:27:41;;;;;;;5.50;2.67;;;;;;;2.89;56.00;101292.06;3569095;40;20056;-64
2022/04/02 02:30:09;;;;;;;4.53;2.65;;;;;;;2.88;57.06;101286.78;3576562;40;20048;-64
2022/04/02 02:32:37;;;;;;;4.20;2.58;;;;;;;2.86;57.04;101292.16;3565878;40;20114;-64
2022/04/02 02:38:09;;;;;;;5.78;2.75;;;;;;;2.80;57.27;101297.59;3572527;40;20777;-64
2022/04/02 02:40:37;;;;;;;3.88;2.70;;;;;;;2.77;58.26;101300.31;3569412;40;20405;-64
2022/04/02 02:43:04;;;;;;;3.10;2.30;;;;;;;2.74;57.10;101301.25;3571898;40;20130;-64
2022/04/02 02:45:31;;;;;;;3.13;2.40;;;;;;;2.24;56.69;101218.28;3571789;40;20645;-64
2022/04/02 02:47:58;;;;;;;3.20;2.40;;;;;;;2.70;57.36;101299.56;3569155;40;20777;-64
2022/04/02 02:50:26;;;;;;;3.60;2.28;;;;;;;2.75;56.86;101307.44;3575458;40;20060;-64
2022/04/02 02:52:52;;;;;;;4.07;2.67;;;;;;;2.59;57.10;101274.16;3572928;40;20055;-64
2022/04/02 02:55:21;;;;;;;3.88;2.70;;;;;;;2.68;57.07;101289.88;3570294;40;20357;-64
2022/04/02 02:57:47;;;;;;;5.60;2.50;;;;;;;2.72;56.68;101303.06;3569371;40;20052;-64
2022/04/02 03:00:16;;;;;;;6.90;2.75;;;;;;;2.73;57.51;101311.91;3574278;40;20061;-64
2022/04/02 03:02:43;;;;;;;3.28;2.47;;;;;;;2.50;56.89;101278.75;3563531;40;20118;-64
2022/04/02 03:05:12;;;;;;;4.15;2.45;;;;;;;2.69;57.92;101307.56;3574208;40;20488;-64
2022/04/02 03:07:48;;;;;;;5.25;2.70;;;;;;;2.67;56.38;101309.38;3572307;40;20055;-65
2022/04/02 03:10:18;;;;;;;5.10;2.40;;;;;;;2.66;57.93;101304.97;3575162;40;20044;-64
2022/04/02 03:12:46;;;;;;;2.60;2.40;;;;;;;2.66;57.13;101310.28;3566920;40;20052;-64
2022/04/02 03:15:15;;;;;;;4.35;2.67;;;;;;;2.63;56.80;101310.34;3580905;40;20063;-64
2022/04/02 03:17:41;;;;;;;4.80;2.28;;;;;;;2.62;57.62;101308.59;3564809;40;20064;-64
2022/04/02 03:20:08;;;;;;;3.70;2.63;;;;;;;2.63;57.90;101302.38;3574007;40;20056;-64
2022/04/02 03:22:39;;;;;;;5.55;2.50;;;;;;;2.61;57.76;101305.06;3573819;40;20307;-64
2022/04/02 03:25:08;;;;;;;3.03;2.47;;;;;;;2.63;57.17;101313.00;3573925;40;20130;-64
2022/04/02 03:27:33;;;;;;;3.63;2.67;;;;;;;2.54;57.98;101307.00;3569515;40;20509;-64
2022/04/02 03:30:00;;;;;;;4.35;2.40;;;;;;;2.63;57.00;101313.00;3572374;40;20145;-64
2022/04/02 03:32:25;;;;;;;5.68;2.92;;;;;;;2.62;57.49;101314.78;3573759;40;20084;-64
2022/04/02 03:34:51;;;;;;;3.42;2.50;;;;;;;2.62;57.30;101316.56;3565202;40;20140;-65
2022/04/02 03:37:17;;;;;;;4.95;2.53;;;;;;;2.61;57.82;101310.38;3575217;40;20362;-64
2022/04/02 03:39:42;;;;;;;3.15;2.50;;;;;;;2.50;56.83;101297.31;3573746;40;20052;-64
2022/04/02 03:42:09;;;;;;;4.47;2.42;;;;;;;2.61;57.38;101312.19;3568738;40;20048;-64
2022/04/02 03:44:35;;;;;;;4.70;2.67;;;;;;;2.10;57.26;101228.34;3573318;40;20738;-64
2022/04/02 03:47:10;;;;;;;2.85;2.10;;;;;;;2.51;56.94;101295.56;3574551;40;20122;-64
2022/04/02 03:49:41;;;;;;;5.40;2.40;;;;;;;2.58;56.78;101309.59;3569492;40;20378;-64
2022/04/02 03:52:08;;;;;;;3.95;2.30;;;;;;;2.59;57.02;101316.63;3573913;40;20052;-64
2022/04/02 03:54:35;;;;;;;4.32;2.30;;;;;;;2.58;58.05;101320.19;3574940;40;20125;-64
2022/04/02 03:57:05;;;;;;;5.07;2.45;;;;;;;2.57;57.54;101324.63;3573614;40;20060;-64
2022/04/02 03:59:32;;;;;;;3.50;2.60;;;;;;;2.53;57.70;101323.78;3567207;40;20060;-64
2022/04/02 04:01:59;;;;;;;3.88;2.53;;;;;;;2.53;58.16;101329.09;3573488;40;20052;-64
2022/04/02 04:04:26;;;;;;;4.53;2.50;;;;;;;2.53;57.94;101326.44;3575901;40;20396;-64
2022/04/02 04:06:53;;;;;;;3.90;2.47;;;;;;;2.50;58.36;101326.50;3564783;40;20058;-64
2022/04/02 04:09:20;;;;;;;5.60;2.80;;;;;;;2.50;57.86;101333.59;3574942;40;20048;-64
2022/04/02 04:11:46;;;;;;;3.33;2.63;;;;;;;2.50;58.14;101337.13;3572137;40;20639;-64
2022/04/02 04:14:12;;;;;;;3.70;2.47;;;;;;;2.48;58.51;101335.44;3569285;40;20052;-64
2022/04/02 04:16:38;;;;;;;3.78;2.65;;;;;;;2.45;59.33;101341.66;3571240;40;20361;-63
2022/04/02 04:19:04;;;;;;;4.18;2.42;;;;;;;2.43;58.43;101338.16;3571700;40;20119;-64
2022/04/02 04:21:29;;;;;;;3.20;2.60;;;;;;;1.89;58.82;101261.44;3565548;40;20064;-64
2022/04/02 04:23:55;;;;;;;3.70;2.80;;;;;;;2.38;57.95;101344.47;3573518;40;20126;-64
2022/04/02 04:26:21;;;;;;;4.30;2.80;;;;;;;2.37;58.38;101345.38;3575354;40;20072;-64
2022/04/02 04:28:47;;;;;;;4.30;3.00;;;;;;;2.36;58.85;101349.81;3569987;40;21318;-64
2022/04/02 04:31:17;;;;;;;4.70;2.80;;;;;;;2.32;59.34;101340.16;3570846;40;20056;-64
2022/04/02 04:33:44;;;;;;;4.60;3.03;;;;;;;2.20;59.25;101313.88;3573042;40;20114;-64
2022/04/02 04:36:11;;;;;;;3.55;2.67;;;;;;;2.35;59.53;101344.50;3566574;40;20293;-64
2022/04/02 04:38:37;;;;;;;4.45;2.80;;;;;;;2.33;58.62;101349.88;3575064;40;20171;-64
2022/04/02 04:41:03;;;;;;;2.75;2.50;;;;;;;2.28;58.07;101346.41;3575488;40;20060;-64
2022/04/02 04:43:29;;;;;;;3.15;2.60;;;;;;;2.25;58.18;101344.72;3574184;40;20078;-64
2022/04/02 04:45:55;;;;;;;4.32;2.28;;;;;;;2.24;58.89;101350.03;3566937;40;20949;-64
2022/04/02 04:48:20;;;;;;;6.55;2.90;;;;;;;2.28;58.62;101363.22;3574414;40;20056;-64
2022/04/02 04:50:47;;;;;;;4.30;2.60;;;;;;;2.28;58.97;101362.34;3572876;40;20052;-64
2022/04/02 04:53:14;;;;;;;4.40;2.55;;;;;;;2.16;59.22;101355.50;3566951;40;20387;-64
2022/04/02 04:55:40;;;;;;;3.17;2.55;;;;;;;2.27;58.27;101377.38;3573859;40;20353;-64
2022/04/02 04:58:07;;;;;;;2.95;2.63;;;;;;;2.26;58.87;101377.44;3574835;40;20056;-64
2022/04/02 05:00:33;;;;;;;6.07;2.50;;;;;;;2.15;58.98;101355.50;3571536;40;20080;-64
2022/04/02 05:02:59;;;;;;;5.18;2.83;;;;;;;2.12;58.39;101351.13;3567354;40;20740;-64
2022/04/02 05:05:31;;;;;;;3.83;2.78;;;;;;;2.30;58.15;101389.72;3568919;40;20074;-64
2022/04/02 05:07:58;;;;;;;5.05;2.72;;;;;;;2.28;58.57;101387.09;3562764;40;20075;-64
2022/04/02 05:10:24;;;;;;;3.65;2.42;;;;;;;2.29;58.62;101390.63;3568354;40;20115;-64
2022/04/02 05:12:50;;;;;;;2.72;2.13;;;;;;;2.29;58.23;101399.47;3571306;40;20068;-64
2022/04/02 05:15:16;;;;;;;3.53;2.70;;;;;;;2.27;57.63;101388.00;3576026;40;20411;-64
2022/04/02 05:17:42;;;;;;;2.55;2.33;;;;;;;2.32;58.38;101390.56;3565284;40;20096;-64
2022/04/02 05:20:11;;;;;;;2.38;2.17;;;;;;;2.32;57.76;101398.53;3573202;40;20048;-64
2022/04/02 05:22:37;;;;;;;3.58;2.35;;;;;;;2.33;57.40;101405.56;3567242;40;20052;-65
2022/04/02 05:25:05;;;;;;;5.18;2.25;;;;;;;2.33;57.68;101395.84;3568001;40;20710;-65
2022/04/02 05:27:32;;;;;;;4.07;2.33;;;;;;;2.37;57.42;101417.88;3569595;40;20064;-65
2022/04/02 05:29:58;;;;;;;2.78;2.22;;;;;;;2.38;56.88;101414.34;3573618;40;20099;-64
2022/04/02 05:32:24;;;;;;;3.95;2.50;;;;;;;2.38;57.20;101417.00;3572383;40;20056;-65
2022/04/02 05:34:50;;;;;;;2.70;2.40;;;;;;;2.41;57.57;101427.53;3565116;40;20138;-65
2022/04/02 05:37:15;;;;;;;3.28;2.30;;;;;;;2.44;56.92;101430.16;3573167;40;20048;-65
2022/04/02 05:39:43;;;;;;;3.25;2.50;;;;;;;2.46;57.61;101424.78;3563083;40;20055;-65
2022/04/02 05:42:12;;;;;;;4.28;2.60;;;;;;;2.48;57.66;101428.31;3569285;40;20400;-64
2022/04/02 05:44:41;;;;;;;5.10;2.80;;;;;;;2.32;57.07;101406.50;3571122;40;20040;-64
2022/04/02 05:47:07;;;;;;;3.88;2.33;;;;;;;2.52;56.62;101435.28;3578201;40;20056;-65
2022/04/02 05:49:33;;;;;;;3.28;2.40;;;;;;;2.52;57.56;101436.16;3568616;40;20055;-64
2022/04/02 05:51:59;;;;;;;3.40;2.33;;;;;;;2.51;57.81;101441.50;3571395;40;20707;-64
2022/04/02 05:54:25;;;;;;;6.18;2.55;;;;;;;2.57;57.41;101444.06;3565682;40;20370;-64
2022/04/02 05:56:52;;;;;;;4.25;2.55;;;;;;;2.59;57.91;101444.00;3569043;40;20236;-64
2022/04/02 05:59:19;;;;;;;2.78;2.42;;;;;;;2.61;58.13;101452.84;3571115;40;20060;-64
2022/04/02 06:01:45;;;;;;;2.67;2.22;;;;;;;2.38;57.34;101411.69;3570782;40;20060;-63
2022/04/02 06:04:11;;;;;;;3.35;2.42;;;;;;;2.66;57.19;101457.13;3573930;40;20056;-62
2022/04/02 06:06:37;;;;;;;4.97;2.90;;;;;;;2.58;57.63;101442.28;3569116;40;20048;-62
2022/04/02 06:09:04;;;;;;;4.68;2.50;;;;;;;2.65;57.21;101449.22;3563572;40;21323;-63
2022/04/02 06:11:30;;;;;;;6.03;2.65;;;;;;;2.75;58.35;101458.72;3572682;40;20056;-62
2022/04/02 06:13:57;;;;;;;6.72;3.03;;;;;;;2.78;57.61;101470.16;3569524;40;20086;-63
2022/04/02 06:16:25;;;;;;;3.72;2.70;;;;;;;2.81;56.66;101477.19;3573911;40;20380;-63
2022/04/02 06:18:51;;;;;;;4.60;3.10;;;;;;;2.83;58.37;101469.22;3570938;40;20174;-63
2022/04/02 06:21:16;;;;;;;4.75;2.70;;;;;;;2.82;58.23;101463.00;3569719;40;20393;-64
2022/04/02 06:23:44;;;;;;;4.80;2.83;;;;;;;2.88;58.03;101475.31;3571583;40;20060;-64
2022/04/02 06:26:10;;;;;;;5.38;2.67;;;;;;;2.83;57.17;101464.78;3564042;40;20080;-63
2022/04/02 06:28:37;;;;;;;4.68;2.40;;;;;;;2.91;56.89;101478.75;3568896;40;20040;-64
2022/04/02 06:31:04;;;;;;;4.22;2.58;;;;;;;2.93;57.49;101479.63;3571966;40;20090;-63
2022/04/02 06:33:32;;;;;;;3.05;2.20;;;;;;;2.95;57.17;101483.13;3570204;40;20322;-64
2022/04/02 06:35:59;;;;;;;4.90;2.65;;;;;;;2.95;57.21;101485.78;3571365;40;20669;-64
2022/04/02 06:38:24;;;;;;;4.82;2.70;;;;;;;3.01;57.23;101493.63;3567986;40;20056;-63
2022/04/02 06:40:51;;;;;;;3.42;2.72;;;;;;;3.01;57.93;101488.31;3560560;40;20068;-62
2022/04/02 06:43:16;;;;;;;3.13;2.53;;;;;;;3.10;57.91;101499.66;3574630;40;20063;-63
2022/04/02 06:45:42;;;;;;;4.85;2.80;;;;;;;3.06;57.02;101482.03;3565599;40;20048;-64
2022/04/02 06:48:08;;;;;;;3.67;2.70;;;;;;;3.17;57.61;101501.28;3572072;40;20544;-64
2022/04/02 06:50:34;;;;;;;4.53;2.88;;;;;;;3.22;57.74;101504.72;3571892;40;20049;-64
2022/04/02 06:53:00;;;;;;;4.05;2.63;;;;;;;3.26;56.71;101501.09;3567731;40;20063;-64
2022/04/02 06:55:25;;;;;;;4.05;2.50;;;;;;;3.32;56.31;101510.72;3571568;40;20319;-64
2022/04/02 06:57:59;;;;;;;5.35;3.15;;;;;;;3.30;56.25;101508.09;3563181;40;20067;-65
2022/04/02 07:00:26;;;;;;;4.63;3.08;;;;;;;3.37;55.87;101520.34;3568205;40;20054;-64
2022/04/02 07:02:52;;;;;;;4.00;2.80;;;;;;;3.38;56.64;101510.59;3571237;40;20148;-64
2022/04/02 07:05:18;;;;;;;3.33;2.90;;;;;;;3.44;56.05;101524.63;3575858;40;20048;-64
2022/04/02 07:07:45;;;;;;;6.93;2.95;;;;;;;3.53;55.71;101525.34;3567183;40;20218;-64
2022/04/02 07:10:11;;;;;;;4.68;2.63;;;;;;;3.60;55.59;101526.97;3574247;40;20119;-65
2022/04/02 07:12:37;;;;;;;4.00;2.75;;;;;;;3.65;55.38;101528.63;3557282;40;20058;-65
2022/04/02 07:15:05;;;;;;;3.28;2.67;;;;;;;3.72;55.34;101537.31;3571129;40;20683;-64
2022/04/02 07:17:31;;;;;;;4.95;2.90;;;;;;;3.74;55.28;101524.84;3578313;40;20055;-66
2022/04/02 07:20:02;;;;;;;4.40;2.85;;;;;;;3.88;55.27;101545.84;3574177;40;20434;-64
2022/04/02 07:22:28;;;;;;;5.95;2.80;;;;;;;3.97;55.17;101547.41;3576755;40;20050;-65
2022/04/02 07:24:56;;;;;;;4.18;2.85;;;;;;;4.05;54.68;101546.31;3570658;40;20112;-64
2022/04/02 07:27:27;;;;;;;3.95;2.80;;;;;;;4.11;54.14;101551.50;3565286;39;20056;-65
2022/04/02 07:29:54;;;;;;;3.22;2.40;;;;;;;4.14;54.33;101548.75;3569882;40;20696;-66
2022/04/02 07:32:20;;;;;;;3.78;2.58;;;;;;;3.70;54.44;101472.66;3578299;40;20112;-65
2022/04/02 07:34:46;;;;;;;6.18;3.00;;;;;;;4.08;54.56;101538.25;3573525;40;20066;-66
2022/04/02 07:37:31;;;;;;;6.07;3.20;;;;;;;4.23;54.36;101555.66;3575479;40;20067;-66
2022/04/02 07:40:19;;;;;;;3.83;2.47;;;;;;;3.84;53.58;101494.50;3573330;40;20053;-66
2022/04/02 07:43:08;;;;;;;3.72;2.95;;;;;;;4.35;53.65;101565.16;3562821;40;20112;-66
2022/04/02 07:45:45;;;;;;;7.25;2.78;;;;;;;4.58;53.62;101567.22;3572663;40;20158;-67
2022/04/02 07:48:13;;;;;;;3.60;2.60;;;;;;;4.81;52.63;101564.84;3577499;39;20068;-66
2022/04/02 07:50:44;;;;;;;3.42;2.42;;;;;;;4.94;51.96;101553.88;3573640;40;20045;-67
2022/04/02 07:53:21;;;;;;;5.63;2.42;;;;;;;5.24;51.55;101574.34;3578444;40;20328;-66
2022/04/02 07:55:57;;;;;;;3.78;2.78;;;;;;;5.47;51.42;101580.84;3573791;40;20068;-68
2022/04/02 07:58:31;;;;;;;4.05;2.67;;;;;;;5.68;51.18;101577.56;3564594;40;20286;-67
2022/04/02 08:01:04;;;;;;;4.45;2.75;;;;;;;5.32;50.62;101480.84;3569497;40;20052;-66
2022/04/02 08:03:31;;;;;;;3.43;2.53;;;;;;;6.13;49.61;101577.09;3577020;40;20052;-66
2022/04/02 08:05:57;;;;;;;5.07;3.20;;;;;;;6.27;49.52;101584.66;3575947;40;20735;-66
2022/04/02 08:08:26;;;;;;;5.70;2.80;;;;;;;6.16;49.77;101547.66;3578682;39;20059;-64
2022/04/02 08:10:56;;;;;;;6.07;2.95;;;;;;;6.31;48.77;101575.63;3574131;40;20065;-66
2022/04/02 08:13:22;;;;;;;4.95;2.95;;;;;;;6.36;49.04;101583.50;3566101;40;20051;-66
2022/04/02 08:15:54;;;;;;;5.25;3.00;;;;;;;6.37;49.33;101591.44;3567176;40;20078;-66
2022/04/02 08:18:26;;;;;;;4.13;2.85;;;;;;;6.43;49.22;101582.38;3574012;39;20118;-66
2022/04/02 08:20:54;;;;;;;4.88;3.40;;;;;;;6.51;49.04;101591.03;3571966;40;20064;-66
2022/04/02 08:23:20;;;;;;;6.93;3.40;;;;;;;6.63;49.80;101592.41;3573568;40;20468;-66
2022/04/02 08:26:22;;;;;;;5.25;3.05;;;;;;;6.67;49.38;101588.72;3570154;40;20666;-65
2022/04/02 08:29:16;;;;;;;5.03;3.25;;;;;;;6.70;49.57;101600.19;3563498;40;20526;-65
2022/04/02 08:32:07;;;;;;;3.13;2.80;;;;;;;6.75;48.86;101594.66;3567541;40;20387;-66
2022/04/02 08:34:46;;;;;;;5.15;2.92;;;;;;;6.59;48.59;101607.66;3573120;40;20072;-66
2022/04/02 08:37:27;;;;;;;5.57;3.15;;;;;;;6.58;48.51;101608.59;3574948;40;20086;-65
2022/04/02 08:40:26;;;;;;;4.35;2.88;;;;;;;6.56;48.61;101605.09;3561758;40;20386;-64
2022/04/02 08:43:37;;;;;;;4.22;2.97;;;;;;;6.44;49.31;101610.84;3573638;40;20049;-66
2022/04/02 08:46:48;;;;;;;3.92;3.10;;;;;;;5.92;48.64;101537.69;3569498;40;20752;-65
2022/04/02 08:49:34;;;;;;;5.70;3.08;;;;;;;6.22;49.80;101606.19;3578789;39;20080;-65
2022/04/02 08:52:15;;;;;;;6.20;3.08;;;;;;;6.18;49.65;101620.53;3573254;40;20692;-66
2022/04/02 08:55:11;;;;;;;4.85;3.28;;;;;;;6.02;50.07;101616.56;3571644;40;20361;-65
2022/04/02 08:57:52;;;;;;;5.13;2.92;;;;;;;5.91;50.30;101626.69;3570926;40;20056;-66
2022/04/02 09:00:28;;;;;;;5.43;3.30;;;;;;;5.73;51.35;101625.41;3565043;40;20417;-66
2022/04/02 09:02:53;;;;;;;7.00;3.88;;;;;;;5.64;52.29;101623.88;3570473;40;20140;-64
2022/04/02 09:05:52;;;;;;;6.93;3.70;;;;;;;5.59;52.19;101634.69;3576510;40;20048;-65
2022/04/02 09:08:42;;;;;;;5.55;3.38;;;;;;;5.54;52.13;101635.72;3575168;39;21692;-65
2022/04/02 09:11:26;;;;;;;4.97;3.45;;;;;;;5.57;52.92;101638.31;3574190;40;20048;-66
2022/04/02 09:14:39;;;;;;;7.57;3.80;;;;;;;5.69;52.49;101643.31;3574955;40;20451;-65
2022/04/02 09:17:35;;;;;;;8.60;3.88;;;;;;;6.05;53.33;101653.84;3565719;40;20096;-65
2022/04/02 09:20:19;;;;;;;7.97;4.13;;;;;;;6.30;52.06;101651.31;3571247;40;20052;-65
2022/04/02 09:23:06;;;;;;;6.13;3.70;;;;;;;6.59;50.60;101657.53;3568993;40;20060;-66
2022/04/02 09:26:12;;;;;;;7.20;4.07;;;;;;;6.52;50.57;101654.19;3573029;40;20048;-66
2022/04/02 09:29:13;;;;;;;6.25;3.58;;;;;;;6.71;49.85;101659.81;3571167;40;20060;-66
2022/04/02 09:32:15;;;;;;;3.97;3.58;;;;;;;6.74;49.17;101663.25;3564778;40;20086;-65
2022/04/02 09:34:52;;;;;;;8.32;4.78;;;;;;;6.72;49.55;101666.91;3567055;40;20063;-66
2022/04/02 09:37:32;;;;;;;7.38;4.40;;;;;;;6.59;49.97;101663.75;3572555;40;20406;-66
2022/04/02 09:40:12;;;;;;;7.43;3.90;;;;;;;6.33;50.25;101647.69;3571875;40;20082;-66
2022/04/02 09:42:43;;;;;;;7.07;4.70;;;;;;;6.19;49.16;101646.31;3572567;40;20063;-64
2022/04/02 09:45:16;;;;;;;8.55;4.93;;;;;;;6.11;50.08;101669.69;3573479;40;20068;-65
2022/04/02 09:48:08;;;;;;;5.38;3.75;;;;;;;6.05;50.76;101664.53;3564864;40;20468;-65
2022/04/02 09:50:35;;;;;;;12.13;4.38;;;;;;;6.10;51.99;101667.06;3568222;40;20049;-65
2022/04/02 09:53:23;;;;;;;4.72;3.47;;;;;;;6.14;50.85;101666.06;3574297;40;20081;-64
2022/04/02 09:56:27;;;;;;;9.05;4.05;;;;;;;6.41;50.06;101672.38;3571469;40;20141;-67
2022/04/02 09:59:37;;;;;;;4.32;3.85;;;;;;;6.92;49.74;101663.59;3571685;40;20759;-65
2022/04/02 10:02:26;;;;;;;5.32;3.65;;;;;;;7.41;48.78;101656.56;3572212;40;20479;-65
2022/04/02 10:05:03;;;;;;;3.78;3.25;;;;;;;7.73;44.79;101658.06;3560118;40;22854;-66
2022/04/02 10:08:11;;;;;;;3.42;3.13;;;;;;;7.72;45.73;101664.38;3574493;40;20109;-66
2022/04/02 10:10:41;;;;;;;5.72;3.40;;;;;;;6.85;45.75;101517.72;3567635;40;20071;-65
2022/04/02 10:13:08;;;;;;;6.85;3.38;;;;;;;7.73;46.61;101658.06;3573951;40;20340;-65
2022/04/02 10:15:42;;;;;;;9.18;4.00;;;;;;;7.89;47.12;101653.03;3572688;40;20064;-66
2022/04/02 10:18:12;;;;;;;3.90;3.25;;;;;;;8.14;46.04;101624.38;3573730;40;20071;-67
2022/04/02 10:20:39;;;;;;;5.38;3.72;;;;;;;8.71;45.32;101648.06;3559632;40;20064;-64
2022/04/02 10:23:23;;;;;;;5.97;3.90;;;;;;;9.17;44.73;101641.66;3575152;40;20072;-65
2022/04/02 10:26:23;;;;;;;6.88;3.47;;;;;;;9.46;43.62;101639.53;3572737;40;20063;-65
2022/04/02 10:28:54;;;;;;;5.53;3.55;;;;;;;9.29;41.86;101638.47;3571937;40;20056;-64
2022/04/02 10:31:31;;;;;;;6.00;3.28;;;;;;;8.87;41.06;101645.63;3573267;40;20099;-65
2022/04/02 10:34:33;;;;;;;5.40;3.00;;;;;;;8.50;42.94;101639.09;3564421;40;20090;-63
2022/04/02 10:37:10;;;;;;;5.50;3.65;;;;;;;7.92;42.15;101620.78;3569706;40;20720;-64
2022/04/02 10:39:57;;;;;;;4.25;3.22;;;;;;;7.82;44.04;101646.16;3573152;40;20323;-65
2022/04/02 10:42:37;;;;;;;4.65;3.65;;;;;;;7.63;46.62;101645.97;3576148;40;20062;-64
2022/04/02 10:45:11;;;;;;;6.28;3.80;;;;;;;7.29;49.93;101651.63;3574390;40;20056;-64
2022/04/02 10:47:48;;;;;;;5.05;3.33;;;;;;;7.02;52.13;101654.34;3573923;40;20056;-64
2022/04/02 10:50:22;;;;;;;5.43;3.35;;;;;;;6.79;50.68;101660.47;3567187;40;20129;-63
2022/04/02 10:52:50;;;;;;;4.90;3.83;;;;;;;6.54;51.54;101663.03;3568609;40;20052;-64
2022/04/02 10:55:20;;;;;;;10.40;3.63;;;;;;;6.30;51.78;101645.09;3577482;40;20062;-63
2022/04/02 10:57:47;;;;;;;5.10;3.70;;;;;;;6.24;52.29;101662.19;3574573;40;20056;-64
2022/04/02 11:00:13;;;;;;;5.40;3.58;;;;;;;6.15;53.12;101655.34;3577671;40;20067;-65
2022/04/02 11:02:46;;;;;;;4.85;3.70;;;;;;;6.12;53.24;101654.53;3574422;40;20064;-63
2022/04/02 11:05:17;;;;;;;5.75;3.78;;;;;;;6.08;50.48;101659.09;3573298;39;20330;-65
2022/04/02 11:07:48;;;;;;;4.70;3.53;;;;;;;5.97;51.69;101655.91;3568877;40;20145;-63
2022/04/02 11:10:18;;;;;;;5.80;3.50;;;;;;;5.92;51.92;101655.97;3577058;40;20048;-64
2022/04/02 11:12:46;;;;;;;6.85;3.42;;;;;;;5.85;52.40;101659.75;3574840;40;20268;-63
2022/04/02 11:15:20;;;;;;;5.95;3.35;;;;;;;5.89;52.96;101652.53;3577508;40;20135;-64
2022/04/02 11:17:59;;;;;;;3.95;3.10;;;;;;;5.91;51.71;101654.25;3573327;40;20446;-63
2022/04/02 11:20:28;;;;;;;5.22;3.50;;;;;;;5.91;52.17;101646.22;3566974;40;20257;-64
2022/04/02 11:22:57;;;;;;;4.53;3.20;;;;;;;5.90;51.16;101648.94;3569651;40;20679;-64
2022/04/02 11:25:29;;;;;;;7.60;3.30;;;;;;;5.95;51.43;101652.38;3576726;40;20358;-64
2022/04/02 11:28:08;;;;;;;3.85;3.47;;;;;;;5.98;52.02;101645.16;3572394;40;20122;-64
2022/04/02 11:30:45;;;;;;;3.58;3.28;;;;;;;6.06;51.33;101647.63;3575009;40;20052;-64
2022/04/02 11:33:26;;;;;;;6.25;3.10;;;;;;;6.13;49.84;101643.84;3577198;40;20072;-63
2022/04/02 11:36:05;;;;;;;6.13;3.35;;;;;;;6.19;49.87;101638.31;3563162;40;20064;-63
2022/04/02 11:39:03;;;;;;;5.47;3.67;;;;;;;6.47;49.92;101651.69;3568767;40;20060;-64
2022/04/02 11:41:37;;;;;;;3.53;3.15;;;;;;;6.65;49.12;101654.69;3569647;40;20080;-67
2022/04/02 11:44:16;;;;;;;4.72;3.00;;;;;;;6.66;46.44;101662.66;3574484;40;20071;-66
2022/04/02 11:47:00;;;;;;;6.88;3.00;;;;;;;6.55;46.07;101659.44;3574843;40;20083;-67
2022/04/02 11:49:29;;;;;;;;;;;;;;;6.44;45.69;101661.59;3576701;40;20156;-65
2022/04/02 11:52:13;;;;;;;4.22;2.60;;;;;;;6.43;44.68;101650.00;3565561;40;19948;-66
2022/04/02 11:54:44;;;;;;;4.47;2.72;;;;;;;6.48;44.19;101663.25;3569692;40;20102;-67
2022/04/02 11:57:12;;;;;;;7.32;2.65;;;;;;;6.59;43.90;101655.75;3576321;40;20053;-66
2022/04/02 11:59:51;;;;;;;5.68;2.58;;;;;;;6.77;43.40;101658.75;3572413;40;20099;-68